sensor_id;sensor_type;location;lat;lon;timestamp;P1;durP1;ratioP1;P2;durP2;ratioP2
62861;SDS011;48953;53.110;5.592;2023-04-15T00:00:16;12.48;;;5.85;;
62861;SDS011;48953;53.110;5.592;2023-04-15T00:02:44;9.43;;;4.47;;
62861;SDS011;48953;53.110;5.592;2023-04-15T00:05:10;7.55;;;4.80;;
62861;SDS011;48953;53.110;5.592;2023-04-15T00:07:36;9.95;;;5.07;;
62861;SDS011;48953;53.110;5.592;2023-04-15T00:10:02;11.25;;;5.00;;
62861;SDS011;48953;53.110;5.592;2023-04-15T00:12:29;7.70;;;4.53;;
62861;SDS011;48953;53.110;5.592;2023-04-15T00:14:55;11.77;;;5.93;;
62861;SDS011;48953;53.110;5.592;2023-04-15T00:17:22;9.98;;;5.03;;
62861;SDS011;48953;53.110;5.592;2023-04-15T00:19:48;9.93;;;4.78;;
62861;SDS011;48953;53.110;5.592;2023-04-15T00:22:14;11.23;;;4.68;;
62861;SDS011;48953;53.110;5.592;2023-04-15T00:24:42;12.50;;;4.80;;
62861;SDS011;48953;53.110;5.592;2023-04-15T00:27:08;9.65;;;5.28;;
62861;SDS011;48953;53.110;5.592;2023-04-15T00:29:34;12.98;;;5.45;;
62861;SDS011;48953;53.110;5.592;2023-04-15T00:32:00;13.23;;;5.85;;
62861;SDS011;48953;53.110;5.592;2023-04-15T00:34:26;11.00;;;5.18;;
62861;SDS011;48953;53.110;5.592;2023-04-15T00:36:53;9.85;;;4.97;;
62861;SDS011;48953;53.110;5.592;2023-04-15T00:39:19;8.60;;;5.82;;
62861;SDS011;48953;53.110;5.592;2023-04-15T00:41:45;10.30;;;5.32;;
62861;SDS011;48953;53.110;5.592;2023-04-15T00:47:08;7.18;;;4.65;;
62861;SDS011;48953;53.110;5.592;2023-04-15T00:49:34;6.72;;;4.15;;
62861;SDS011;48953;53.110;5.592;2023-04-15T00:52:00;9.77;;;4.93;;
62861;SDS011;48953;53.110;5.592;2023-04-15T00:54:28;7.70;;;4.43;;
62861;SDS011;48953;53.110;5.592;2023-04-15T00:56:54;9.38;;;4.80;;
62861;SDS011;48953;53.110;5.592;2023-04-15T00:59:20;11.23;;;4.63;;
62861;SDS011;48953;53.110;5.592;2023-04-15T01:01:46;7.72;;;4.53;;
62861;SDS011;48953;53.110;5.592;2023-04-15T01:04:12;9.80;;;4.85;;
62861;SDS011;48953;53.110;5.592;2023-04-15T01:06:39;8.77;;;4.60;;
62861;SDS011;48953;53.110;5.592;2023-04-15T01:09:05;10.10;;;4.97;;
62861;SDS011;48953;53.110;5.592;2023-04-15T01:11:31;14.25;;;5.03;;
62861;SDS011;48953;53.110;5.592;2023-04-15T01:13:58;9.63;;;4.78;;
62861;SDS011;48953;53.110;5.592;2023-04-15T01:16:25;10.02;;;4.32;;
62861;SDS011;48953;53.110;5.592;2023-04-15T01:18:52;9.00;;;5.05;;
62861;SDS011;48953;53.110;5.592;2023-04-15T01:21:18;10.27;;;4.38;;
62861;SDS011;48953;53.110;5.592;2023-04-15T01:23:46;10.93;;;5.00;;
62861;SDS011;48953;53.110;5.592;2023-04-15T01:26:12;12.93;;;4.88;;
62861;SDS011;48953;53.110;5.592;2023-04-15T01:31:27;14.95;;;5.55;;
62861;SDS011;48953;53.110;5.592;2023-04-15T01:33:53;10.48;;;4.97;;
62861;SDS011;48953;53.110;5.592;2023-04-15T01:36:19;11.20;;;5.13;;
62861;SDS011;48953;53.110;5.592;2023-04-15T01:38:45;9.85;;;5.25;;
62861;SDS011;48953;53.110;5.592;2023-04-15T01:41:15;8.98;;;5.38;;
62861;SDS011;48953;53.110;5.592;2023-04-15T01:43:41;10.77;;;5.85;;
62861;SDS011;48953;53.110;5.592;2023-04-15T01:46:07;11.90;;;5.60;;
62861;SDS011;48953;53.110;5.592;2023-04-15T01:48:33;14.90;;;6.38;;
62861;SDS011;48953;53.110;5.592;2023-04-15T01:50:59;11.25;;;5.55;;
62861;SDS011;48953;53.110;5.592;2023-04-15T01:53:25;13.60;;;6.10;;
62861;SDS011;48953;53.110;5.592;2023-04-15T01:55:51;12.68;;;6.00;;
62861;SDS011;48953;53.110;5.592;2023-04-15T01:58:17;15.13;;;6.10;;
62861;SDS011;48953;53.110;5.592;2023-04-15T02:00:43;11.13;;;6.47;;
62861;SDS011;48953;53.110;5.592;2023-04-15T02:03:09;10.95;;;6.30;;
62861;SDS011;48953;53.110;5.592;2023-04-15T02:05:35;11.50;;;6.78;;
62861;SDS011;48953;53.110;5.592;2023-04-15T02:08:01;10.93;;;6.05;;
62861;SDS011;48953;53.110;5.592;2023-04-15T02:13:28;12.27;;;6.72;;
62861;SDS011;48953;53.110;5.592;2023-04-15T02:15:54;14.50;;;6.88;;
62861;SDS011;48953;53.110;5.592;2023-04-15T02:18:20;13.85;;;7.10;;
62861;SDS011;48953;53.110;5.592;2023-04-15T02:20:46;14.10;;;6.35;;
62861;SDS011;48953;53.110;5.592;2023-04-15T02:23:12;11.85;;;6.57;;
62861;SDS011;48953;53.110;5.592;2023-04-15T02:25:38;12.65;;;6.53;;
62861;SDS011;48953;53.110;5.592;2023-04-15T02:28:05;15.52;;;7.18;;
62861;SDS011;48953;53.110;5.592;2023-04-15T02:30:31;12.35;;;6.10;;
62861;SDS011;48953;53.110;5.592;2023-04-15T02:32:57;11.90;;;6.75;;
62861;SDS011;48953;53.110;5.592;2023-04-15T02:35:23;16.45;;;7.60;;
62861;SDS011;48953;53.110;5.592;2023-04-15T02:37:50;17.92;;;7.57;;
62861;SDS011;48953;53.110;5.592;2023-04-15T02:40:16;14.80;;;8.02;;
62861;SDS011;48953;53.110;5.592;2023-04-15T02:42:42;13.35;;;7.50;;
62861;SDS011;48953;53.110;5.592;2023-04-15T02:45:08;12.32;;;6.30;;
62861;SDS011;48953;53.110;5.592;2023-04-15T02:47:36;17.65;;;7.47;;
62861;SDS011;48953;53.110;5.592;2023-04-15T02:50:06;14.23;;;6.18;;
62861;SDS011;48953;53.110;5.592;2023-04-15T02:52:33;15.15;;;7.63;;
62861;SDS011;48953;53.110;5.592;2023-04-15T02:55:13;16.90;;;8.35;;
62861;SDS011;48953;53.110;5.592;2023-04-15T02:57:50;9.98;;;5.40;;
62861;SDS011;48953;53.110;5.592;2023-04-15T03:00:16;12.48;;;6.80;;
62861;SDS011;48953;53.110;5.592;2023-04-15T03:02:42;13.40;;;6.70;;
62861;SDS011;48953;53.110;5.592;2023-04-15T03:05:12;13.00;;;7.43;;
62861;SDS011;48953;53.110;5.592;2023-04-15T03:07:41;14.73;;;7.83;;
62861;SDS011;48953;53.110;5.592;2023-04-15T03:10:08;14.73;;;8.45;;
62861;SDS011;48953;53.110;5.592;2023-04-15T03:12:34;13.65;;;8.15;;
62861;SDS011;48953;53.110;5.592;2023-04-15T03:15:00;11.68;;;6.90;;
62861;SDS011;48953;53.110;5.592;2023-04-15T03:17:26;13.23;;;7.40;;
62861;SDS011;48953;53.110;5.592;2023-04-15T03:19:52;15.63;;;7.57;;
62861;SDS011;48953;53.110;5.592;2023-04-15T03:22:18;14.30;;;8.38;;
62861;SDS011;48953;53.110;5.592;2023-04-15T03:24:44;16.20;;;8.65;;
62861;SDS011;48953;53.110;5.592;2023-04-15T03:27:10;14.90;;;7.45;;
62861;SDS011;48953;53.110;5.592;2023-04-15T03:29:37;13.70;;;7.40;;
62861;SDS011;48953;53.110;5.592;2023-04-15T03:32:03;14.10;;;7.30;;
62861;SDS011;48953;53.110;5.592;2023-04-15T03:34:29;13.32;;;7.15;;
62861;SDS011;48953;53.110;5.592;2023-04-15T03:39:59;12.90;;;7.40;;
62861;SDS011;48953;53.110;5.592;2023-04-15T03:42:25;16.67;;;8.63;;
62861;SDS011;48953;53.110;5.592;2023-04-15T03:44:51;12.63;;;7.85;;
62861;SDS011;48953;53.110;5.592;2023-04-15T03:47:17;15.75;;;7.97;;
62861;SDS011;48953;53.110;5.592;2023-04-15T03:49:43;15.80;;;8.20;;
62861;SDS011;48953;53.110;5.592;2023-04-15T03:52:19;15.57;;;7.93;;
62861;SDS011;48953;53.110;5.592;2023-04-15T03:54:45;15.88;;;8.25;;
62861;SDS011;48953;53.110;5.592;2023-04-15T03:57:11;15.32;;;8.40;;
62861;SDS011;48953;53.110;5.592;2023-04-15T03:59:37;13.35;;;7.85;;
62861;SDS011;48953;53.110;5.592;2023-04-15T04:02:03;16.35;;;8.10;;
62861;SDS011;48953;53.110;5.592;2023-04-15T04:04:29;13.45;;;7.35;;
62861;SDS011;48953;53.110;5.592;2023-04-15T04:06:55;14.25;;;8.63;;
62861;SDS011;48953;53.110;5.592;2023-04-15T04:09:21;15.52;;;8.18;;
62861;SDS011;48953;53.110;5.592;2023-04-15T04:11:47;14.98;;;7.82;;
62861;SDS011;48953;53.110;5.592;2023-04-15T04:14:13;14.95;;;8.75;;
62861;SDS011;48953;53.110;5.592;2023-04-15T04:16:39;14.32;;;8.10;;
62861;SDS011;48953;53.110;5.592;2023-04-15T04:19:06;17.10;;;8.82;;
62861;SDS011;48953;53.110;5.592;2023-04-15T04:21:32;18.65;;;9.40;;
62861;SDS011;48953;53.110;5.592;2023-04-15T04:23:58;16.85;;;8.82;;
62861;SDS011;48953;53.110;5.592;2023-04-15T04:26:24;17.33;;;8.77;;
62861;SDS011;48953;53.110;5.592;2023-04-15T04:28:51;14.90;;;8.32;;
62861;SDS011;48953;53.110;5.592;2023-04-15T04:31:17;16.52;;;8.40;;
62861;SDS011;48953;53.110;5.592;2023-04-15T04:39:03;14.90;;;8.13;;
62861;SDS011;48953;53.110;5.592;2023-04-15T04:41:29;14.18;;;8.00;;
62861;SDS011;48953;53.110;5.592;2023-04-15T04:43:56;13.98;;;8.25;;
62861;SDS011;48953;53.110;5.592;2023-04-15T04:46:22;11.48;;;6.90;;
62861;SDS011;48953;53.110;5.592;2023-04-15T04:48:48;14.48;;;7.78;;
62861;SDS011;48953;53.110;5.592;2023-04-15T04:51:14;15.60;;;7.80;;
62861;SDS011;48953;53.110;5.592;2023-04-15T04:53:40;16.65;;;8.50;;
62861;SDS011;48953;53.110;5.592;2023-04-15T04:56:07;16.75;;;8.27;;
62861;SDS011;48953;53.110;5.592;2023-04-15T04:58:33;14.10;;;7.95;;
62861;SDS011;48953;53.110;5.592;2023-04-15T05:00:59;16.10;;;7.70;;
62861;SDS011;48953;53.110;5.592;2023-04-15T05:03:26;14.27;;;7.63;;
62861;SDS011;48953;53.110;5.592;2023-04-15T05:05:53;13.73;;;7.63;;
62861;SDS011;48953;53.110;5.592;2023-04-15T05:08:19;16.05;;;8.93;;
62861;SDS011;48953;53.110;5.592;2023-04-15T05:10:45;15.65;;;8.45;;
62861;SDS011;48953;53.110;5.592;2023-04-15T05:13:11;14.23;;;8.13;;
62861;SDS011;48953;53.110;5.592;2023-04-15T05:15:37;14.25;;;7.80;;
62861;SDS011;48953;53.110;5.592;2023-04-15T05:18:05;15.70;;;8.43;;
62861;SDS011;48953;53.110;5.592;2023-04-15T05:23:23;13.98;;;8.15;;
62861;SDS011;48953;53.110;5.592;2023-04-15T05:25:49;15.20;;;8.60;;
62861;SDS011;48953;53.110;5.592;2023-04-15T05:28:15;14.35;;;8.30;;
62861;SDS011;48953;53.110;5.592;2023-04-15T05:30:41;13.00;;;8.38;;
62861;SDS011;48953;53.110;5.592;2023-04-15T05:33:07;13.63;;;8.18;;
62861;SDS011;48953;53.110;5.592;2023-04-15T05:35:33;14.75;;;8.82;;
62861;SDS011;48953;53.110;5.592;2023-04-15T05:37:59;16.40;;;8.35;;
62861;SDS011;48953;53.110;5.592;2023-04-15T05:40:25;17.88;;;9.23;;
62861;SDS011;48953;53.110;5.592;2023-04-15T05:42:52;13.00;;;8.15;;
62861;SDS011;48953;53.110;5.592;2023-04-15T05:45:18;15.32;;;8.48;;
62861;SDS011;48953;53.110;5.592;2023-04-15T05:47:44;14.27;;;7.72;;
62861;SDS011;48953;53.110;5.592;2023-04-15T05:50:10;13.43;;;8.18;;
62861;SDS011;48953;53.110;5.592;2023-04-15T05:52:36;12.25;;;7.63;;
62861;SDS011;48953;53.110;5.592;2023-04-15T05:55:02;14.60;;;8.60;;
62861;SDS011;48953;53.110;5.592;2023-04-15T05:57:28;12.70;;;7.82;;
62861;SDS011;48953;53.110;5.592;2023-04-15T05:59:54;13.98;;;8.35;;
62861;SDS011;48953;53.110;5.592;2023-04-15T06:02:21;13.32;;;7.93;;
62861;SDS011;48953;53.110;5.592;2023-04-15T06:04:58;14.55;;;7.82;;
62861;SDS011;48953;53.110;5.592;2023-04-15T06:10:28;10.50;;;5.63;;
62861;SDS011;48953;53.110;5.592;2023-04-15T06:12:54;15.75;;;8.80;;
62861;SDS011;48953;53.110;5.592;2023-04-15T06:15:20;15.48;;;8.68;;
62861;SDS011;48953;53.110;5.592;2023-04-15T06:20:31;14.77;;;8.55;;
62861;SDS011;48953;53.110;5.592;2023-04-15T06:22:57;15.23;;;9.10;;
62861;SDS011;48953;53.110;5.592;2023-04-15T06:25:24;13.00;;;7.13;;
62861;SDS011;48953;53.110;5.592;2023-04-15T06:27:50;11.95;;;7.65;;
62861;SDS011;48953;53.110;5.592;2023-04-15T06:30:16;10.98;;;7.40;;
62861;SDS011;48953;53.110;5.592;2023-04-15T06:32:42;12.35;;;7.30;;
62861;SDS011;48953;53.110;5.592;2023-04-15T06:35:08;10.05;;;6.53;;
62861;SDS011;48953;53.110;5.592;2023-04-15T06:37:34;13.38;;;7.45;;
62861;SDS011;48953;53.110;5.592;2023-04-15T06:40:00;7.93;;;4.60;;
62861;SDS011;48953;53.110;5.592;2023-04-15T06:42:28;10.02;;;6.25;;
62861;SDS011;48953;53.110;5.592;2023-04-15T06:44:55;10.88;;;6.10;;
62861;SDS011;48953;53.110;5.592;2023-04-15T06:47:20;13.18;;;4.75;;
62861;SDS011;48953;53.110;5.592;2023-04-15T06:49:52;6.43;;;4.35;;
62861;SDS011;48953;53.110;5.592;2023-04-15T06:52:18;8.13;;;5.00;;
62861;SDS011;48953;53.110;5.592;2023-04-15T06:54:44;9.10;;;5.50;;
62861;SDS011;48953;53.110;5.592;2023-04-15T06:57:10;8.93;;;5.97;;
62861;SDS011;48953;53.110;5.592;2023-04-15T06:59:36;8.25;;;4.88;;
62861;SDS011;48953;53.110;5.592;2023-04-15T07:02:02;9.25;;;5.40;;
62861;SDS011;48953;53.110;5.592;2023-04-15T07:04:28;10.18;;;4.55;;
62861;SDS011;48953;53.110;5.592;2023-04-15T07:06:54;10.00;;;5.57;;
62861;SDS011;48953;53.110;5.592;2023-04-15T07:09:23;8.80;;;5.03;;
62861;SDS011;48953;53.110;5.592;2023-04-15T07:11:49;7.65;;;4.68;;
62861;SDS011;48953;53.110;5.592;2023-04-15T07:14:15;11.05;;;6.05;;
62861;SDS011;48953;53.110;5.592;2023-04-15T07:16:41;11.40;;;6.47;;
62861;SDS011;48953;53.110;5.592;2023-04-15T07:19:07;9.40;;;5.57;;
62861;SDS011;48953;53.110;5.592;2023-04-15T07:21:33;10.52;;;5.85;;
62861;SDS011;48953;53.110;5.592;2023-04-15T07:23:59;10.82;;;5.90;;
62861;SDS011;48953;53.110;5.592;2023-04-15T07:26:25;10.52;;;6.57;;
62861;SDS011;48953;53.110;5.592;2023-04-15T07:28:51;10.68;;;5.68;;
62861;SDS011;48953;53.110;5.592;2023-04-15T07:31:33;7.95;;;4.90;;
62861;SDS011;48953;53.110;5.592;2023-04-15T07:33:59;9.93;;;5.20;;
62861;SDS011;48953;53.110;5.592;2023-04-15T07:36:25;11.73;;;6.30;;
62861;SDS011;48953;53.110;5.592;2023-04-15T07:38:50;11.75;;;6.63;;
62861;SDS011;48953;53.110;5.592;2023-04-15T07:41:16;10.88;;;7.18;;
62861;SDS011;48953;53.110;5.592;2023-04-15T07:43:43;10.35;;;6.43;;
62861;SDS011;48953;53.110;5.592;2023-04-15T07:46:09;11.40;;;6.85;;
62861;SDS011;48953;53.110;5.592;2023-04-15T07:48:35;10.23;;;7.25;;
62861;SDS011;48953;53.110;5.592;2023-04-15T07:51:01;11.57;;;6.90;;
62861;SDS011;48953;53.110;5.592;2023-04-15T07:53:27;8.60;;;5.00;;
62861;SDS011;48953;53.110;5.592;2023-04-15T07:55:53;8.93;;;5.07;;
62861;SDS011;48953;53.110;5.592;2023-04-15T07:58:19;10.02;;;6.57;;
62861;SDS011;48953;53.110;5.592;2023-04-15T08:00:45;11.73;;;6.93;;
62861;SDS011;48953;53.110;5.592;2023-04-15T08:03:11;11.35;;;7.20;;
62861;SDS011;48953;53.110;5.592;2023-04-15T08:05:37;7.97;;;4.78;;
62861;SDS011;48953;53.110;5.592;2023-04-15T08:08:03;6.60;;;3.85;;
62861;SDS011;48953;53.110;5.592;2023-04-15T08:10:29;7.60;;;4.15;;
62861;SDS011;48953;53.110;5.592;2023-04-15T08:12:55;5.32;;;3.58;;
62861;SDS011;48953;53.110;5.592;2023-04-15T08:15:21;7.88;;;5.18;;
62861;SDS011;48953;53.110;5.592;2023-04-15T08:20:37;7.43;;;4.10;;
62861;SDS011;48953;53.110;5.592;2023-04-15T08:23:03;6.00;;;3.42;;
62861;SDS011;48953;53.110;5.592;2023-04-15T08:25:29;5.28;;;3.38;;
62861;SDS011;48953;53.110;5.592;2023-04-15T08:27:55;4.50;;;2.63;;
62861;SDS011;48953;53.110;5.592;2023-04-15T08:30:21;4.13;;;3.55;;
62861;SDS011;48953;53.110;5.592;2023-04-15T08:32:48;3.00;;;2.28;;
62861;SDS011;48953;53.110;5.592;2023-04-15T08:35:14;3.28;;;2.88;;
62861;SDS011;48953;53.110;5.592;2023-04-15T08:37:40;3.17;;;2.15;;
62861;SDS011;48953;53.110;5.592;2023-04-15T08:40:06;3.45;;;2.65;;
62861;SDS011;48953;53.110;5.592;2023-04-15T08:42:37;2.30;;;2.10;;
62861;SDS011;48953;53.110;5.592;2023-04-15T08:45:06;3.92;;;2.63;;
62861;SDS011;48953;53.110;5.592;2023-04-15T08:47:34;3.30;;;2.47;;
62861;SDS011;48953;53.110;5.592;2023-04-15T08:50:02;2.53;;;1.70;;
62861;SDS011;48953;53.110;5.592;2023-04-15T08:52:29;4.30;;;2.83;;
62861;SDS011;48953;53.110;5.592;2023-04-15T08:54:56;4.65;;;2.75;;
62861;SDS011;48953;53.110;5.592;2023-04-15T08:57:26;3.40;;;2.20;;
62861;SDS011;48953;53.110;5.592;2023-04-15T09:05:46;2.92;;;2.20;;
62861;SDS011;48953;53.110;5.592;2023-04-15T09:08:12;5.40;;;2.70;;
62861;SDS011;48953;53.110;5.592;2023-04-15T09:10:38;4.70;;;2.20;;
62861;SDS011;48953;53.110;5.592;2023-04-15T09:13:04;5.13;;;2.83;;
62861;SDS011;48953;53.110;5.592;2023-04-15T09:15:31;4.70;;;3.00;;
62861;SDS011;48953;53.110;5.592;2023-04-15T09:17:57;3.20;;;2.42;;
62861;SDS011;48953;53.110;5.592;2023-04-15T09:20:23;6.22;;;3.28;;
62861;SDS011;48953;53.110;5.592;2023-04-15T09:22:49;5.28;;;2.83;;
62861;SDS011;48953;53.110;5.592;2023-04-15T09:27:49;4.68;;;2.88;;
62861;SDS011;48953;53.110;5.592;2023-04-15T09:30:15;4.85;;;2.70;;
62861;SDS011;48953;53.110;5.592;2023-04-15T09:32:51;5.47;;;3.13;;
62861;SDS011;48953;53.110;5.592;2023-04-15T09:35:17;3.58;;;2.42;;
62861;SDS011;48953;53.110;5.592;2023-04-15T09:37:43;5.53;;;3.03;;
62861;SDS011;48953;53.110;5.592;2023-04-15T09:43:05;3.47;;;2.65;;
62861;SDS011;48953;53.110;5.592;2023-04-15T09:45:32;3.80;;;2.80;;
62861;SDS011;48953;53.110;5.592;2023-04-15T09:47:59;8.15;;;2.75;;
62861;SDS011;48953;53.110;5.592;2023-04-15T09:50:28;4.40;;;2.33;;
62861;SDS011;48953;53.110;5.592;2023-04-15T09:52:54;3.03;;;2.33;;
62861;SDS011;48953;53.110;5.592;2023-04-15T09:55:21;5.40;;;2.05;;
62861;SDS011;48953;53.110;5.592;2023-04-15T09:57:47;3.65;;;2.53;;
62861;SDS011;48953;53.110;5.592;2023-04-15T10:00:13;3.05;;;2.13;;
62861;SDS011;48953;53.110;5.592;2023-04-15T10:02:40;3.92;;;1.70;;
62861;SDS011;48953;53.110;5.592;2023-04-15T10:05:06;4.85;;;1.85;;
62861;SDS011;48953;53.110;5.592;2023-04-15T10:07:32;4.75;;;2.55;;
62861;SDS011;48953;53.110;5.592;2023-04-15T10:09:59;6.95;;;2.15;;
62861;SDS011;48953;53.110;5.592;2023-04-15T10:12:26;5.18;;;2.38;;
62861;SDS011;48953;53.110;5.592;2023-04-15T10:14:57;2.17;;;1.70;;
62861;SDS011;48953;53.110;5.592;2023-04-15T10:17:23;3.92;;;1.65;;
62861;SDS011;48953;53.110;5.592;2023-04-15T10:19:53;2.22;;;1.52;;
62861;SDS011;48953;53.110;5.592;2023-04-15T10:22:22;3.42;;;1.80;;
62861;SDS011;48953;53.110;5.592;2023-04-15T10:24:50;2.65;;;2.17;;
62861;SDS011;48953;53.110;5.592;2023-04-15T10:27:16;2.17;;;1.90;;
62861;SDS011;48953;53.110;5.592;2023-04-15T10:29:42;3.67;;;2.28;;
62861;SDS011;48953;53.110;5.592;2023-04-15T10:32:09;3.13;;;1.52;;
62861;SDS011;48953;53.110;5.592;2023-04-15T10:34:35;4.10;;;3.20;;
62861;SDS011;48953;53.110;5.592;2023-04-15T10:37:01;1.23;;;1.08;;
62861;SDS011;48953;53.110;5.592;2023-04-15T10:42:18;3.03;;;1.38;;
62861;SDS011;48953;53.110;5.592;2023-04-15T10:44:47;2.90;;;1.65;;
62861;SDS011;48953;53.110;5.592;2023-04-15T10:47:18;1.58;;;0.95;;
62861;SDS011;48953;53.110;5.592;2023-04-15T10:49:46;2.92;;;1.48;;
62861;SDS011;48953;53.110;5.592;2023-04-15T10:52:13;1.42;;;1.02;;
62861;SDS011;48953;53.110;5.592;2023-04-15T10:54:40;2.15;;;1.80;;
62861;SDS011;48953;53.110;5.592;2023-04-15T10:57:08;4.35;;;1.45;;
62861;SDS011;48953;53.110;5.592;2023-04-15T10:59:35;3.63;;;2.20;;
62861;SDS011;48953;53.110;5.592;2023-04-15T11:02:02;2.97;;;1.60;;
62861;SDS011;48953;53.110;5.592;2023-04-15T11:12:40;1.42;;;1.02;;
62861;SDS011;48953;53.110;5.592;2023-04-15T11:17:51;2.60;;;1.20;;
62861;SDS011;48953;53.110;5.592;2023-04-15T11:20:17;1.15;;;0.90;;
62861;SDS011;48953;53.110;5.592;2023-04-15T11:22:46;3.80;;;0.95;;
62861;SDS011;48953;53.110;5.592;2023-04-15T11:25:23;2.38;;;1.55;;
62861;SDS011;48953;53.110;5.592;2023-04-15T11:27:49;1.35;;;0.95;;
62861;SDS011;48953;53.110;5.592;2023-04-15T11:30:17;1.65;;;0.85;;
62861;SDS011;48953;53.110;5.592;2023-04-15T11:32:44;2.53;;;1.63;;
62861;SDS011;48953;53.110;5.592;2023-04-15T11:35:10;2.25;;;1.30;;
62861;SDS011;48953;53.110;5.592;2023-04-15T11:37:36;2.75;;;1.17;;
62861;SDS011;48953;53.110;5.592;2023-04-15T11:40:02;1.48;;;1.13;;
62861;SDS011;48953;53.110;5.592;2023-04-15T11:42:29;2.42;;;1.20;;
62861;SDS011;48953;53.110;5.592;2023-04-15T11:45:11;2.75;;;1.05;;
62861;SDS011;48953;53.110;5.592;2023-04-15T11:47:46;3.35;;;1.40;;
62861;SDS011;48953;53.110;5.592;2023-04-15T11:50:18;2.80;;;1.10;;
62861;SDS011;48953;53.110;5.592;2023-04-15T11:52:54;4.38;;;1.27;;
62861;SDS011;48953;53.110;5.592;2023-04-15T11:55:20;4.53;;;1.70;;
62861;SDS011;48953;53.110;5.592;2023-04-15T11:57:48;4.45;;;2.28;;
62861;SDS011;48953;53.110;5.592;2023-04-15T12:00:14;3.35;;;1.58;;
62861;SDS011;48953;53.110;5.592;2023-04-15T12:02:41;2.53;;;1.75;;
62861;SDS011;48953;53.110;5.592;2023-04-15T12:05:08;3.67;;;1.98;;
62861;SDS011;48953;53.110;5.592;2023-04-15T12:10:18;1.90;;;0.90;;
62861;SDS011;48953;53.110;5.592;2023-04-15T12:12:47;2.55;;;1.40;;
62861;SDS011;48953;53.110;5.592;2023-04-15T12:15:13;3.83;;;1.58;;
62861;SDS011;48953;53.110;5.592;2023-04-15T12:17:39;3.20;;;1.45;;
62861;SDS011;48953;53.110;5.592;2023-04-15T12:20:05;1.52;;;0.95;;
62861;SDS011;48953;53.110;5.592;2023-04-15T12:22:32;2.72;;;1.02;;
62861;SDS011;48953;53.110;5.592;2023-04-15T12:25:02;3.17;;;1.13;;
62861;SDS011;48953;53.110;5.592;2023-04-15T12:27:28;3.92;;;1.30;;
62861;SDS011;48953;53.110;5.592;2023-04-15T12:30:09;4.75;;;1.50;;
62861;SDS011;48953;53.110;5.592;2023-04-15T12:32:35;1.23;;;0.52;;
62861;SDS011;48953;53.110;5.592;2023-04-15T12:35:01;1.10;;;0.57;;
62861;SDS011;48953;53.110;5.592;2023-04-15T12:37:27;2.75;;;0.88;;
62861;SDS011;48953;53.110;5.592;2023-04-15T12:39:53;4.82;;;1.70;;
62861;SDS011;48953;53.110;5.592;2023-04-15T12:42:19;3.95;;;1.42;;
62861;SDS011;48953;53.110;5.592;2023-04-15T12:44:46;8.05;;;2.00;;
62861;SDS011;48953;53.110;5.592;2023-04-15T12:47:12;3.17;;;0.70;;
62861;SDS011;48953;53.110;5.592;2023-04-15T12:49:38;3.08;;;1.17;;
62861;SDS011;48953;53.110;5.592;2023-04-15T12:52:05;3.42;;;1.50;;
62861;SDS011;48953;53.110;5.592;2023-04-15T12:54:31;4.55;;;1.00;;
62861;SDS011;48953;53.110;5.592;2023-04-15T12:56:57;9.05;;;1.25;;
62861;SDS011;48953;53.110;5.592;2023-04-15T12:59:23;2.50;;;0.60;;
62861;SDS011;48953;53.110;5.592;2023-04-15T13:01:50;5.50;;;0.70;;
62861;SDS011;48953;53.110;5.592;2023-04-15T13:04:17;4.03;;;1.20;;
62861;SDS011;48953;53.110;5.592;2023-04-15T13:06:43;2.25;;;0.85;;
62861;SDS011;48953;53.110;5.592;2023-04-15T13:09:09;3.08;;;1.15;;
62861;SDS011;48953;53.110;5.592;2023-04-15T13:11:35;3.35;;;1.52;;
62861;SDS011;48953;53.110;5.592;2023-04-15T13:14:02;4.72;;;1.02;;
62861;SDS011;48953;53.110;5.592;2023-04-15T13:16:28;5.97;;;1.15;;
62861;SDS011;48953;53.110;5.592;2023-04-15T13:18:55;2.83;;;0.90;;
62861;SDS011;48953;53.110;5.592;2023-04-15T13:21:22;2.22;;;1.00;;
62861;SDS011;48953;53.110;5.592;2023-04-15T13:23:48;6.32;;;1.30;;
62861;SDS011;48953;53.110;5.592;2023-04-15T13:26:15;6.55;;;1.98;;
62861;SDS011;48953;53.110;5.592;2023-04-15T13:28:41;2.22;;;0.60;;
62861;SDS011;48953;53.110;5.592;2023-04-15T13:31:07;4.45;;;0.93;;
62861;SDS011;48953;53.110;5.592;2023-04-15T13:33:33;8.07;;;1.23;;
62861;SDS011;48953;53.110;5.592;2023-04-15T13:35:59;3.67;;;1.20;;
62861;SDS011;48953;53.110;5.592;2023-04-15T13:38:25;4.95;;;0.63;;
62861;SDS011;48953;53.110;5.592;2023-04-15T13:40:51;3.20;;;0.95;;
62861;SDS011;48953;53.110;5.592;2023-04-15T13:43:17;1.95;;;0.80;;
62861;SDS011;48953;53.110;5.592;2023-04-15T13:48:29;4.05;;;0.88;;
62861;SDS011;48953;53.110;5.592;2023-04-15T13:50:55;2.63;;;0.73;;
62861;SDS011;48953;53.110;5.592;2023-04-15T13:53:21;2.67;;;0.82;;
62861;SDS011;48953;53.110;5.592;2023-04-15T13:55:47;1.50;;;0.77;;
62861;SDS011;48953;53.110;5.592;2023-04-15T13:58:13;6.50;;;1.35;;
62861;SDS011;48953;53.110;5.592;2023-04-15T14:00:39;3.50;;;1.00;;
62861;SDS011;48953;53.110;5.592;2023-04-15T14:03:05;3.13;;;0.90;;
62861;SDS011;48953;53.110;5.592;2023-04-15T14:05:31;3.22;;;0.73;;
62861;SDS011;48953;53.110;5.592;2023-04-15T14:07:58;4.05;;;0.80;;
62861;SDS011;48953;53.110;5.592;2023-04-15T14:10:31;1.33;;;0.60;;
62861;SDS011;48953;53.110;5.592;2023-04-15T14:12:57;1.17;;;0.50;;
62861;SDS011;48953;53.110;5.592;2023-04-15T14:15:23;6.03;;;1.10;;
62861;SDS011;48953;53.110;5.592;2023-04-15T14:17:49;5.05;;;0.98;;
62861;SDS011;48953;53.110;5.592;2023-04-15T14:20:22;9.57;;;1.50;;
62861;SDS011;48953;53.110;5.592;2023-04-15T14:22:48;5.07;;;0.90;;
62861;SDS011;48953;53.110;5.592;2023-04-15T14:25:14;5.50;;;1.48;;
62861;SDS011;48953;53.110;5.592;2023-04-15T14:27:53;2.30;;;0.85;;
62861;SDS011;48953;53.110;5.592;2023-04-15T14:30:19;7.38;;;1.10;;
62861;SDS011;48953;53.110;5.592;2023-04-15T14:32:45;4.32;;;1.33;;
62861;SDS011;48953;53.110;5.592;2023-04-15T14:35:11;4.25;;;1.20;;
62861;SDS011;48953;53.110;5.592;2023-04-15T14:37:37;8.13;;;1.55;;
62861;SDS011;48953;53.110;5.592;2023-04-15T14:40:03;5.95;;;1.42;;
62861;SDS011;48953;53.110;5.592;2023-04-15T14:42:30;3.28;;;1.15;;
62861;SDS011;48953;53.110;5.592;2023-04-15T14:44:56;5.78;;;1.25;;
62861;SDS011;48953;53.110;5.592;2023-04-15T14:47:22;4.95;;;1.25;;
62861;SDS011;48953;53.110;5.592;2023-04-15T14:49:48;3.50;;;0.80;;
62861;SDS011;48953;53.110;5.592;2023-04-15T14:52:14;3.08;;;0.80;;
62861;SDS011;48953;53.110;5.592;2023-04-15T14:54:40;5.18;;;1.00;;
62861;SDS011;48953;53.110;5.592;2023-04-15T14:57:06;4.32;;;1.25;;
62861;SDS011;48953;53.110;5.592;2023-04-15T14:59:33;3.78;;;1.25;;
62861;SDS011;48953;53.110;5.592;2023-04-15T15:01:59;3.92;;;1.08;;
62861;SDS011;48953;53.110;5.592;2023-04-15T15:04:25;5.78;;;1.02;;
62861;SDS011;48953;53.110;5.592;2023-04-15T15:06:51;3.75;;;1.35;;
62861;SDS011;48953;53.110;5.592;2023-04-15T15:09:25;2.08;;;0.63;;
62861;SDS011;48953;53.110;5.592;2023-04-15T15:11:52;5.10;;;1.25;;
62861;SDS011;48953;53.110;5.592;2023-04-15T15:14:18;4.47;;;0.90;;
62861;SDS011;48953;53.110;5.592;2023-04-15T15:16:44;3.72;;;0.98;;
62861;SDS011;48953;53.110;5.592;2023-04-15T15:19:10;3.20;;;0.60;;
62861;SDS011;48953;53.110;5.592;2023-04-15T15:21:36;6.50;;;1.15;;
62861;SDS011;48953;53.110;5.592;2023-04-15T15:24:02;2.40;;;0.77;;
62861;SDS011;48953;53.110;5.592;2023-04-15T15:26:28;2.10;;;0.65;;
62861;SDS011;48953;53.110;5.592;2023-04-15T15:28:54;4.35;;;0.90;;
62861;SDS011;48953;53.110;5.592;2023-04-15T15:31:20;3.30;;;0.85;;
62861;SDS011;48953;53.110;5.592;2023-04-15T15:33:46;2.97;;;1.08;;
62861;SDS011;48953;53.110;5.592;2023-04-15T15:36:12;4.88;;;0.90;;
62861;SDS011;48953;53.110;5.592;2023-04-15T15:38:39;3.25;;;1.02;;